Portada
METAR-TAF:

METAR-TAF

Aeroports :

Torí, Itàlia

latitud: 45-05-20N, longitud: 007-36-20E, altitud: 288 m

Observació

L'informe es va fer fa 16 hores i 0 minuts, a les 15:50 UTC
Vent calma
Temperatura 12°C
Humitat 76%
Pressió 1006 hPa
Visibilitat: 4000 m
Núvols disperses a una alçada de 4000 ft
boirina

METAR: LIMA 251550Z 00000KT 4000 BR SCT040 12/08 Q1006

Hora: 08:50 (07:50 UTC)


TAF: manca

Observacions i pronòstics meteorològics de més de 4000 aeroports (METAR i TAF).

Les estacions disponibles són els punts grocs i vermells al mapa.

Posi el ratolí al punt desitjat per veure el nom de l'estació.

Feu clic per veure les observacions i els pronòstics meteorològics.

Per canviar el mapa: feu clic els botons verds amb una creu de color negre per apropar; al botó verd amb un guió per allunyar la imatge; o en les fletxes verdes per a mapes adjacents.


METAR-TAF: